sensor_id;sensor_type;location;lat;lon;timestamp;pressure;altitude;pressure_sealevel;temperature;humidity
39141;BME280;24875;48.436;10.298;2023-05-06T00:01:22;96324.53;;;14.40;100.00
39141;BME280;24875;48.436;10.298;2023-05-06T00:03:49;96318.19;;;14.41;100.00
39141;BME280;24875;48.436;10.298;2023-05-06T00:06:16;96313.09;;;14.39;100.00
39141;BME280;24875;48.436;10.298;2023-05-06T00:08:42;96311.44;;;14.38;100.00
39141;BME280;24875;48.436;10.298;2023-05-06T00:11:09;96312.63;;;14.29;100.00
39141;BME280;24875;48.436;10.298;2023-05-06T00:13:36;96313.47;;;14.30;100.00
39141;BME280;24875;48.436;10.298;2023-05-06T00:16:03;96312.03;;;14.27;100.00
39141;BME280;24875;48.436;10.298;2023-05-06T00:18:31;96307.78;;;14.33;100.00
39141;BME280;24875;48.436;10.298;2023-05-06T00:20:57;96295.69;;;14.17;100.00
39141;BME280;24875;48.436;10.298;2023-05-06T00:23:24;96299.44;;;14.02;100.00
39141;BME280;24875;48.436;10.298;2023-05-06T00:25:52;96303.41;;;14.12;100.00
39141;BME280;24875;48.436;10.298;2023-05-06T00:28:19;96302.59;;;14.12;100.00
39141;BME280;24875;48.436;10.298;2023-05-06T00:30:45;96300.53;;;14.14;100.00
39141;BME280;24875;48.436;10.298;2023-05-06T00:33:12;96292.22;;;14.17;100.00
39141;BME280;24875;48.436;10.298;2023-05-06T00:35:39;96294.38;;;14.07;100.00
39141;BME280;24875;48.436;10.298;2023-05-06T00:38:07;96306.94;;;13.92;100.00
39141;BME280;24875;48.436;10.298;2023-05-06T00:40:34;96314.09;;;13.98;100.00
39141;BME280;24875;48.436;10.298;2023-05-06T00:43:00;96308.81;;;13.98;100.00
39141;BME280;24875;48.436;10.298;2023-05-06T00:45:27;96305.19;;;14.05;100.00
39141;BME280;24875;48.436;10.298;2023-05-06T00:47:55;96303.53;;;14.04;100.00
39141;BME280;24875;48.436;10.298;2023-05-06T00:50:22;96308.09;;;14.10;100.00
39141;BME280;24875;48.436;10.298;2023-05-06T00:52:50;96300.53;;;14.14;100.00
39141;BME280;24875;48.436;10.298;2023-05-06T00:55:19;96296.69;;;14.16;100.00
39141;BME280;24875;48.436;10.298;2023-05-06T00:57:46;96291.78;;;14.13;100.00
39141;BME280;24875;48.436;10.298;2023-05-06T01:00:15;96292.38;;;14.09;100.00
39141;BME280;24875;48.436;10.298;2023-05-06T01:02:41;96297.91;;;14.14;100.00
39141;BME280;24875;48.436;10.298;2023-05-06T01:05:08;96302.22;;;14.21;100.00
39141;BME280;24875;48.436;10.298;2023-05-06T01:07:41;96296.94;;;14.28;100.00
39141;BME280;24875;48.436;10.298;2023-05-06T01:10:16;96290.63;;;14.29;100.00
39141;BME280;24875;48.436;10.298;2023-05-06T01:12:49;96289.81;;;14.28;100.00
39141;BME280;24875;48.436;10.298;2023-05-06T01:15:21;96281.25;;;14.33;100.00
39141;BME280;24875;48.436;10.298;2023-05-06T01:17:50;96279.44;;;14.33;100.00
39141;BME280;24875;48.436;10.298;2023-05-06T01:20:20;96286.19;;;14.36;100.00
39141;BME280;24875;48.436;10.298;2023-05-06T01:22:48;96287.41;;;14.40;100.00
39141;BME280;24875;48.436;10.298;2023-05-06T01:25:20;96284.34;;;14.36;100.00
39141;BME280;24875;48.436;10.298;2023-05-06T01:27:47;96285.53;;;14.27;100.00
39141;BME280;24875;48.436;10.298;2023-05-06T01:30:15;96284.13;;;14.31;100.00
39141;BME280;24875;48.436;10.298;2023-05-06T01:32:49;96287.53;;;14.19;100.00
39141;BME280;24875;48.436;10.298;2023-05-06T01:35:23;96281.19;;;14.13;100.00
39141;BME280;24875;48.436;10.298;2023-05-06T01:37:55;96285.06;;;14.17;100.00
39141;BME280;24875;48.436;10.298;2023-05-06T01:40:26;96294.66;;;14.12;100.00
39141;BME280;24875;48.436;10.298;2023-05-06T01:42:55;96302.28;;;14.00;100.00
39141;BME280;24875;48.436;10.298;2023-05-06T01:45:27;96307.25;;;14.10;100.00
39141;BME280;24875;48.436;10.298;2023-05-06T01:47:54;96311.44;;;13.98;100.00
39141;BME280;24875;48.436;10.298;2023-05-06T01:50:22;96312.25;;;13.98;100.00
39141;BME280;24875;48.436;10.298;2023-05-06T01:52:56;96304.53;;;14.03;100.00
39141;BME280;24875;48.436;10.298;2023-05-06T01:55:22;96317.72;;;13.91;100.00
39141;BME280;24875;48.436;10.298;2023-05-06T01:57:50;96315.50;;;13.94;100.00
39141;BME280;24875;48.436;10.298;2023-05-06T02:00:17;96327.28;;;13.85;100.00
39141;BME280;24875;48.436;10.298;2023-05-06T02:02:43;96315.25;;;13.83;100.00
39141;BME280;24875;48.436;10.298;2023-05-06T02:05:11;96310.94;;;13.82;100.00
39141;BME280;24875;48.436;10.298;2023-05-06T02:07:38;96317.00;;;13.76;100.00
39141;BME280;24875;48.436;10.298;2023-05-06T02:10:05;96302.44;;;13.86;100.00
39141;BME280;24875;48.436;10.298;2023-05-06T02:12:32;96299.91;;;13.78;100.00
39141;BME280;24875;48.436;10.298;2023-05-06T02:15:00;96301.31;;;13.74;100.00
39141;BME280;24875;48.436;10.298;2023-05-06T02:17:27;96300.00;;;13.57;100.00
39141;BME280;24875;48.436;10.298;2023-05-06T02:19:53;96297.50;;;13.49;100.00
39141;BME280;24875;48.436;10.298;2023-05-06T02:22:20;96294.47;;;13.52;100.00
39141;BME280;24875;48.436;10.298;2023-05-06T02:24:46;96293.38;;;13.40;100.00
39141;BME280;24875;48.436;10.298;2023-05-06T02:27:13;96296.06;;;13.47;100.00
39141;BME280;24875;48.436;10.298;2023-05-06T02:29:39;96293.22;;;13.48;100.00
39141;BME280;24875;48.436;10.298;2023-05-06T02:32:07;96285.31;;;13.55;100.00
39141;BME280;24875;48.436;10.298;2023-05-06T02:34:33;96292.72;;;13.38;100.00
39141;BME280;24875;48.436;10.298;2023-05-06T02:37:00;96299.03;;;13.38;100.00
39141;BME280;24875;48.436;10.298;2023-05-06T02:39:26;96297.59;;;13.35;100.00
39141;BME280;24875;48.436;10.298;2023-05-06T02:41:53;96294.13;;;13.35;100.00
39141;BME280;24875;48.436;10.298;2023-05-06T02:44:19;96293.31;;;13.34;100.00
39141;BME280;24875;48.436;10.298;2023-05-06T02:46:46;96280.22;;;13.26;100.00
39141;BME280;24875;48.436;10.298;2023-05-06T02:49:13;96279.78;;;13.23;100.00
39141;BME280;24875;48.436;10.298;2023-05-06T02:51:40;96274.81;;;13.13;100.00
39141;BME280;24875;48.436;10.298;2023-05-06T02:54:06;96284.09;;;13.03;100.00
39141;BME280;24875;48.436;10.298;2023-05-06T02:56:33;96275.56;;;13.01;100.00
39141;BME280;24875;48.436;10.298;2023-05-06T02:59:00;96288.88;;;12.93;100.00
39141;BME280;24875;48.436;10.298;2023-05-06T03:01:26;96291.78;;;12.98;100.00
39141;BME280;24875;48.436;10.298;2023-05-06T03:03:53;96282.84;;;12.99;100.00
39141;BME280;24875;48.436;10.298;2023-05-06T03:06:21;96287.00;;;13.08;100.00
39141;BME280;24875;48.436;10.298;2023-05-06T03:08:47;96300.31;;;12.93;100.00
39141;BME280;24875;48.436;10.298;2023-05-06T03:11:14;96297.94;;;12.84;100.00
39141;BME280;24875;48.436;10.298;2023-05-06T03:13:40;96286.81;;;12.88;100.00
39141;BME280;24875;48.436;10.298;2023-05-06T03:16:10;96294.19;;;12.93;100.00
39141;BME280;24875;48.436;10.298;2023-05-06T03:18:37;96287.94;;;12.79;100.00
39141;BME280;24875;48.436;10.298;2023-05-06T03:21:03;96283.59;;;12.72;100.00
39141;BME280;24875;48.436;10.298;2023-05-06T03:23:31;96272.16;;;12.86;100.00
39141;BME280;24875;48.436;10.298;2023-05-06T03:25:58;96282.84;;;12.78;100.00
39141;BME280;24875;48.436;10.298;2023-05-06T03:28:24;96286.97;;;12.66;100.00
39141;BME280;24875;48.436;10.298;2023-05-06T03:30:51;96277.91;;;12.75;100.00
39141;BME280;24875;48.436;10.298;2023-05-06T03:33:17;96279.94;;;12.73;100.00
39141;BME280;24875;48.436;10.298;2023-05-06T03:35:44;96283.84;;;12.77;100.00
39141;BME280;24875;48.436;10.298;2023-05-06T03:38:10;96278.50;;;12.71;100.00
39141;BME280;24875;48.436;10.298;2023-05-06T03:40:38;96284.13;;;12.68;100.00
39141;BME280;24875;48.436;10.298;2023-05-06T03:43:05;96287.75;;;12.60;100.00
39141;BME280;24875;48.436;10.298;2023-05-06T03:45:31;96294.47;;;12.63;100.00
39141;BME280;24875;48.436;10.298;2023-05-06T03:47:58;96287.97;;;12.65;100.00
39141;BME280;24875;48.436;10.298;2023-05-06T03:50:24;96293.91;;;12.67;100.00
39141;BME280;24875;48.436;10.298;2023-05-06T03:52:51;96287.28;;;12.57;100.00
39141;BME280;24875;48.436;10.298;2023-05-06T03:55:17;96288.69;;;12.53;100.00
39141;BME280;24875;48.436;10.298;2023-05-06T03:57:45;96288.56;;;12.61;100.00
39141;BME280;24875;48.436;10.298;2023-05-06T04:00:12;96283.59;;;12.51;100.00
39141;BME280;24875;48.436;10.298;2023-05-06T04:02:39;96287.56;;;12.47;100.00
39141;BME280;24875;48.436;10.298;2023-05-06T04:05:07;96290.13;;;12.55;100.00
39141;BME280;24875;48.436;10.298;2023-05-06T04:07:33;96296.56;;;12.32;100.00
39141;BME280;24875;48.436;10.298;2023-05-06T04:10:00;96296.53;;;12.11;100.00
39141;BME280;24875;48.436;10.298;2023-05-06T04:12:26;96298.44;;;12.03;100.00
39141;BME280;24875;48.436;10.298;2023-05-06T04:14:54;96302.69;;;12.18;100.00
39141;BME280;24875;48.436;10.298;2023-05-06T04:17:20;96297.19;;;12.34;100.00
39141;BME280;24875;48.436;10.298;2023-05-06T04:19:47;96299.03;;;12.33;100.00
39141;BME280;24875;48.436;10.298;2023-05-06T04:22:13;96303.94;;;12.36;100.00
39141;BME280;24875;48.436;10.298;2023-05-06T04:24:40;96303.38;;;12.41;100.00
39141;BME280;24875;48.436;10.298;2023-05-06T04:27:09;96305.09;;;12.48;100.00
39141;BME280;24875;48.436;10.298;2023-05-06T04:29:36;96300.91;;;12.54;100.00
39141;BME280;24875;48.436;10.298;2023-05-06T04:32:04;96299.88;;;12.55;100.00
39141;BME280;24875;48.436;10.298;2023-05-06T04:34:31;96306.88;;;12.62;100.00
39141;BME280;24875;48.436;10.298;2023-05-06T04:37:00;96305.47;;;12.66;100.00
39141;BME280;24875;48.436;10.298;2023-05-06T04:39:26;96314.06;;;12.68;100.00
39141;BME280;24875;48.436;10.298;2023-05-06T04:41:53;96311.94;;;12.78;100.00
39141;BME280;24875;48.436;10.298;2023-05-06T04:44:19;96311.16;;;12.84;100.00
39141;BME280;24875;48.436;10.298;2023-05-06T04:46:46;96310.25;;;12.91;100.00
39141;BME280;24875;48.436;10.298;2023-05-06T04:49:14;96313.84;;;13.05;100.00
39141;BME280;24875;48.436;10.298;2023-05-06T04:51:40;96318.94;;;13.06;100.00
39141;BME280;24875;48.436;10.298;2023-05-06T04:54:07;96319.53;;;13.08;100.00
39141;BME280;24875;48.436;10.298;2023-05-06T04:56:33;96318.84;;;13.21;100.00
39141;BME280;24875;48.436;10.298;2023-05-06T04:59:00;96318.72;;;13.29;100.00
39141;BME280;24875;48.436;10.298;2023-05-06T05:01:26;96332.97;;;13.28;100.00
39141;BME280;24875;48.436;10.298;2023-05-06T05:03:53;96329.19;;;13.37;100.00
39141;BME280;24875;48.436;10.298;2023-05-06T05:06:20;96330.47;;;13.47;100.00
39141;BME280;24875;48.436;10.298;2023-05-06T05:08:47;96333.94;;;13.47;100.00
39141;BME280;24875;48.436;10.298;2023-05-06T05:11:14;96330.53;;;13.53;100.00
39141;BME280;24875;48.436;10.298;2023-05-06T05:13:40;96335.06;;;13.59;100.00
39141;BME280;24875;48.436;10.298;2023-05-06T05:16:07;96338.75;;;13.65;100.00
39141;BME280;24875;48.436;10.298;2023-05-06T05:18:33;96334.34;;;13.78;100.00
39141;BME280;24875;48.436;10.298;2023-05-06T05:21:00;96335.38;;;13.77;100.00
39141;BME280;24875;48.436;10.298;2023-05-06T05:23:27;96334.06;;;13.67;100.00
39141;BME280;24875;48.436;10.298;2023-05-06T05:25:54;96337.97;;;13.71;100.00
39141;BME280;24875;48.436;10.298;2023-05-06T05:28:21;96336.06;;;13.92;100.00
39141;BME280;24875;48.436;10.298;2023-05-06T05:30:47;96337.75;;;13.99;100.00
39141;BME280;24875;48.436;10.298;2023-05-06T05:33:13;96344.69;;;13.73;100.00
39141;BME280;24875;48.436;10.298;2023-05-06T05:35:40;96343.50;;;13.76;100.00
39141;BME280;24875;48.436;10.298;2023-05-06T05:38:07;96343.69;;;13.74;100.00
39141;BME280;24875;48.436;10.298;2023-05-06T05:40:35;96339.13;;;13.89;100.00
39141;BME280;24875;48.436;10.298;2023-05-06T05:43:02;96341.13;;;13.87;100.00
39141;BME280;24875;48.436;10.298;2023-05-06T05:45:28;96338.56;;;14.00;100.00
39141;BME280;24875;48.436;10.298;2023-05-06T05:47:55;96333.16;;;14.08;100.00
39141;BME280;24875;48.436;10.298;2023-05-06T05:50:22;96336.47;;;14.23;100.00
39141;BME280;24875;48.436;10.298;2023-05-06T05:52:48;96332.88;;;14.37;100.00
39141;BME280;24875;48.436;10.298;2023-05-06T05:55:15;96336.19;;;14.52;100.00
39141;BME280;24875;48.436;10.298;2023-05-06T05:57:43;96331.53;;;14.54;100.00
39141;BME280;24875;48.436;10.298;2023-05-06T06:00:10;96327.09;;;14.73;100.00
39141;BME280;24875;48.436;10.298;2023-05-06T06:02:37;96340.34;;;14.80;100.00
39141;BME280;24875;48.436;10.298;2023-05-06T06:05:04;96341.00;;;14.88;100.00
39141;BME280;24875;48.436;10.298;2023-05-06T06:07:31;96346.25;;;14.69;100.00
39141;BME280;24875;48.436;10.298;2023-05-06T06:09:57;96336.28;;;14.77;100.00
39141;BME280;24875;48.436;10.298;2023-05-06T06:12:24;96345.09;;;14.84;100.00
39141;BME280;24875;48.436;10.298;2023-05-06T06:14:51;96340.78;;;14.83;100.00
39141;BME280;24875;48.436;10.298;2023-05-06T06:17:18;96344.25;;;14.84;100.00
39141;BME280;24875;48.436;10.298;2023-05-06T06:19:45;96350.63;;;14.96;100.00
39141;BME280;24875;48.436;10.298;2023-05-06T06:22:12;96353.28;;;15.02;100.00
39141;BME280;24875;48.436;10.298;2023-05-06T06:24:38;96362.25;;;15.01;100.00
39141;BME280;24875;48.436;10.298;2023-05-06T06:27:05;96357.75;;;14.95;100.00
39141;BME280;24875;48.436;10.298;2023-05-06T06:29:31;96363.69;;;14.97;100.00
39141;BME280;24875;48.436;10.298;2023-05-06T06:32:00;96358.00;;;15.13;100.00
39141;BME280;24875;48.436;10.298;2023-05-06T06:34:27;96365.19;;;15.32;100.00
39141;BME280;24875;48.436;10.298;2023-05-06T06:36:53;96367.00;;;15.19;100.00
39141;BME280;24875;48.436;10.298;2023-05-06T06:39:20;96356.00;;;15.41;100.00
39141;BME280;24875;48.436;10.298;2023-05-06T06:41:46;96358.47;;;15.55;100.00
39141;BME280;24875;48.436;10.298;2023-05-06T06:44:13;96357.06;;;15.66;100.00
39141;BME280;24875;48.436;10.298;2023-05-06T06:46:39;96352.53;;;15.85;100.00
39141;BME280;24875;48.436;10.298;2023-05-06T06:49:07;96356.38;;;16.02;100.00
39141;BME280;24875;48.436;10.298;2023-05-06T06:51:33;96355.78;;;15.94;100.00
39141;BME280;24875;48.436;10.298;2023-05-06T06:54:00;96356.19;;;15.97;100.00
39141;BME280;24875;48.436;10.298;2023-05-06T06:56:26;96361.72;;;15.83;100.00
39141;BME280;24875;48.436;10.298;2023-05-06T06:58:53;96359.44;;;15.99;100.00
39141;BME280;24875;48.436;10.298;2023-05-06T07:01:19;96363.59;;;15.70;100.00
39141;BME280;24875;48.436;10.298;2023-05-06T07:03:46;96364.34;;;15.96;100.00
39141;BME280;24875;48.436;10.298;2023-05-06T07:06:13;96359.22;;;16.07;100.00
39141;BME280;24875;48.436;10.298;2023-05-06T07:08:40;96363.28;;;16.29;100.00
39141;BME280;24875;48.436;10.298;2023-05-06T07:11:06;96363.28;;;16.29;100.00
39141;BME280;24875;48.436;10.298;2023-05-06T07:13:33;96363.22;;;16.55;100.00
39141;BME280;24875;48.436;10.298;2023-05-06T07:15:59;96365.06;;;16.54;100.00
39141;BME280;24875;48.436;10.298;2023-05-06T07:18:26;96370.81;;;16.51;100.00
39141;BME280;24875;48.436;10.298;2023-05-06T07:20:52;96367.38;;;16.19;100.00
39141;BME280;24875;48.436;10.298;2023-05-06T07:23:20;96372.53;;;15.94;100.00
39141;BME280;24875;48.436;10.298;2023-05-06T07:25:46;96372.72;;;16.12;100.00
39141;BME280;24875;48.436;10.298;2023-05-06T07:28:13;96375.31;;;16.51;100.00
39141;BME280;24875;48.436;10.298;2023-05-06T07:30:40;96372.53;;;16.83;100.00
39141;BME280;24875;48.436;10.298;2023-05-06T07:33:06;96379.31;;;17.16;100.00
39141;BME280;24875;48.436;10.298;2023-05-06T07:35:33;96385.72;;;17.03;100.00
39141;BME280;24875;48.436;10.298;2023-05-06T07:37:59;96382.53;;;17.31;100.00
39141;BME280;24875;48.436;10.298;2023-05-06T07:40:27;96383.69;;;17.05;98.97
39141;BME280;24875;48.436;10.298;2023-05-06T07:42:53;96387.69;;;17.26;100.00
39141;BME280;24875;48.436;10.298;2023-05-06T07:45:20;96392.63;;;17.16;100.00
39141;BME280;24875;48.436;10.298;2023-05-06T07:47:49;96391.50;;;17.37;100.00
39141;BME280;24875;48.436;10.298;2023-05-06T07:50:15;96390.09;;;17.34;100.00
39141;BME280;24875;48.436;10.298;2023-05-06T07:52:42;96390.59;;;17.49;98.00
39141;BME280;24875;48.436;10.298;2023-05-06T07:55:09;96398.91;;;17.90;92.75
39141;BME280;24875;48.436;10.298;2023-05-06T07:57:37;96399.97;;;18.07;97.08
39141;BME280;24875;48.436;10.298;2023-05-06T08:00:04;96403.63;;;17.88;100.00
39141;BME280;24875;48.436;10.298;2023-05-06T08:02:31;96399.69;;;17.66;100.00
39141;BME280;24875;48.436;10.298;2023-05-06T08:04:57;96403.97;;;17.43;100.00
39141;BME280;24875;48.436;10.298;2023-05-06T08:07:24;96414.03;;;17.41;99.27
39141;BME280;24875;48.436;10.298;2023-05-06T08:09:50;96412.50;;;17.14;99.66
39141;BME280;24875;48.436;10.298;2023-05-06T08:12:17;96405.63;;;17.37;100.00
39141;BME280;24875;48.436;10.298;2023-05-06T08:14:45;96407.56;;;17.55;97.89
39141;BME280;24875;48.436;10.298;2023-05-06T08:17:11;96416.66;;;17.71;96.88
39141;BME280;24875;48.436;10.298;2023-05-06T08:19:38;96415.53;;;17.85;95.36
39141;BME280;24875;48.436;10.298;2023-05-06T08:22:04;96422.56;;;17.80;95.19
39141;BME280;24875;48.436;10.298;2023-05-06T08:24:31;96418.03;;;17.80;94.97
39141;BME280;24875;48.436;10.298;2023-05-06T08:26:57;96420.28;;;17.83;96.19
39141;BME280;24875;48.436;10.298;2023-05-06T08:29:24;96419.44;;;17.83;95.93
39141;BME280;24875;48.436;10.298;2023-05-06T08:31:51;96420.53;;;17.75;90.94
39141;BME280;24875;48.436;10.298;2023-05-06T08:34:18;96422.66;;;17.67;93.13
39141;BME280;24875;48.436;10.298;2023-05-06T08:36:45;96417.25;;;17.49;94.54
39141;BME280;24875;48.436;10.298;2023-05-06T08:39:11;96419.31;;;17.47;88.87
39141;BME280;24875;48.436;10.298;2023-05-06T08:41:39;96423.97;;;17.58;89.35
39141;BME280;24875;48.436;10.298;2023-05-06T08:44:07;96418.56;;;17.65;89.86
39141;BME280;24875;48.436;10.298;2023-05-06T08:46:33;96417.38;;;17.61;89.72
39141;BME280;24875;48.436;10.298;2023-05-06T08:49:01;96420.31;;;17.53;97.10
39141;BME280;24875;48.436;10.298;2023-05-06T08:51:28;96419.63;;;18.12;91.07
39141;BME280;24875;48.436;10.298;2023-05-06T08:53:58;96418.59;;;18.13;91.61
39141;BME280;24875;48.436;10.298;2023-05-06T08:56:28;96413.38;;;18.25;90.64
39141;BME280;24875;48.436;10.298;2023-05-06T08:58:56;96412.59;;;18.42;88.09
39141;BME280;24875;48.436;10.298;2023-05-06T09:01:24;96414.84;;;18.21;89.94
39141;BME280;24875;48.436;10.298;2023-05-06T09:03:51;96413.84;;;18.15;88.60
39141;BME280;24875;48.436;10.298;2023-05-06T09:06:21;96413.53;;;18.30;90.60
39141;BME280;24875;48.436;10.298;2023-05-06T09:08:49;96422.19;;;18.25;88.13
39141;BME280;24875;48.436;10.298;2023-05-06T09:11:21;96420.81;;;18.40;87.64
39141;BME280;24875;48.436;10.298;2023-05-06T09:13:49;96430.06;;;18.20;88.60
39141;BME280;24875;48.436;10.298;2023-05-06T09:16:28;96421.88;;;18.39;85.39
39141;BME280;24875;48.436;10.298;2023-05-06T09:18:55;96422.34;;;18.30;90.46
39141;BME280;24875;48.436;10.298;2023-05-06T09:21:28;96416.00;;;18.85;89.77
39141;BME280;24875;48.436;10.298;2023-05-06T09:23:56;96411.47;;;19.03;87.27
39141;BME280;24875;48.436;10.298;2023-05-06T09:26:22;96416.13;;;19.55;85.42
39141;BME280;24875;48.436;10.298;2023-05-06T09:28:49;96417.44;;;19.93;83.21
39141;BME280;24875;48.436;10.298;2023-05-06T09:31:16;96419.22;;;20.10;83.55
39141;BME280;24875;48.436;10.298;2023-05-06T09:33:42;96415.25;;;20.01;84.80
39141;BME280;24875;48.436;10.298;2023-05-06T09:36:09;96412.72;;;20.29;82.89
39141;BME280;24875;48.436;10.298;2023-05-06T09:38:39;96411.50;;;20.14;77.99
39141;BME280;24875;48.436;10.298;2023-05-06T09:41:05;96414.47;;;19.42;83.07
39141;BME280;24875;48.436;10.298;2023-05-06T09:43:32;96417.56;;;18.92;86.27
39141;BME280;24875;48.436;10.298;2023-05-06T09:45:59;96411.56;;;18.61;87.83
39141;BME280;24875;48.436;10.298;2023-05-06T09:48:27;96408.63;;;18.69;87.34
39141;BME280;24875;48.436;10.298;2023-05-06T09:50:54;96405.34;;;18.67;85.10
39141;BME280;24875;48.436;10.298;2023-05-06T09:53:22;96407.41;;;18.47;86.32
39141;BME280;24875;48.436;10.298;2023-05-06T09:55:51;96407.13;;;18.73;86.36
39141;BME280;24875;48.436;10.298;2023-05-06T09:58:20;96405.19;;;18.62;87.27
39141;BME280;24875;48.436;10.298;2023-05-06T10:00:48;96400.78;;;18.49;88.62
39141;BME280;24875;48.436;10.298;2023-05-06T10:03:16;96397.25;;;18.55;90.07
39141;BME280;24875;48.436;10.298;2023-05-06T10:05:44;96396.44;;;18.55;92.00
39141;BME280;24875;48.436;10.298;2023-05-06T10:08:12;96388.03;;;19.05;93.07
39141;BME280;24875;48.436;10.298;2023-05-06T10:10:43;96377.28;;;19.41;90.70
39141;BME280;24875;48.436;10.298;2023-05-06T10:13:13;96382.66;;;20.04;79.50
39141;BME280;24875;48.436;10.298;2023-05-06T10:15:41;96381.16;;;20.08;79.00
39141;BME280;24875;48.436;10.298;2023-05-06T10:18:12;96373.72;;;20.10;76.61
39141;BME280;24875;48.436;10.298;2023-05-06T10:20:41;96353.72;;;20.24;75.59
39141;BME280;24875;48.436;10.298;2023-05-06T10:23:12;96357.06;;;20.42;78.38
39141;BME280;24875;48.436;10.298;2023-05-06T10:25:42;96356.38;;;20.35;79.37
39141;BME280;24875;48.436;10.298;2023-05-06T10:28:11;96348.63;;;20.62;76.07
39141;BME280;24875;48.436;10.298;2023-05-06T10:30:39;96345.28;;;20.78;74.01
39141;BME280;24875;48.436;10.298;2023-05-06T10:33:07;96352.00;;;20.91;70.73
39141;BME280;24875;48.436;10.298;2023-05-06T10:35:45;96345.19;;;21.56;70.85
39141;BME280;24875;48.436;10.298;2023-05-06T10:38:15;96350.91;;;21.92;72.46
39141;BME280;24875;48.436;10.298;2023-05-06T10:40:43;96350.47;;;21.51;69.22
39141;BME280;24875;48.436;10.298;2023-05-06T10:43:24;96341.94;;;21.87;70.84
39141;BME280;24875;48.436;10.298;2023-05-06T10:45:58;96341.78;;;21.60;73.62
39141;BME280;24875;48.436;10.298;2023-05-06T10:48:25;96340.50;;;20.57;78.73
39141;BME280;24875;48.436;10.298;2023-05-06T10:51:19;96337.94;;;20.73;71.40
39141;BME280;24875;48.436;10.298;2023-05-06T10:53:58;96336.38;;;20.88;74.15
39141;BME280;24875;48.436;10.298;2023-05-06T10:56:30;96331.44;;;20.46;70.52
39141;BME280;24875;48.436;10.298;2023-05-06T10:59:02;96326.84;;;20.19;72.68
39141;BME280;24875;48.436;10.298;2023-05-06T11:01:32;96326.84;;;20.81;67.19
39141;BME280;24875;48.436;10.298;2023-05-06T11:04:06;96324.38;;;20.91;71.90
39141;BME280;24875;48.436;10.298;2023-05-06T11:06:34;96330.06;;;20.94;66.34
39141;BME280;24875;48.436;10.298;2023-05-06T11:09:03;96328.81;;;21.41;61.80
39141;BME280;24875;48.436;10.298;2023-05-06T11:11:46;96327.88;;;21.63;60.68
39141;BME280;24875;48.436;10.298;2023-05-06T11:14:24;96326.59;;;21.82;61.67
39141;BME280;24875;48.436;10.298;2023-05-06T11:16:51;96332.53;;;21.68;58.64
39141;BME280;24875;48.436;10.298;2023-05-06T11:19:21;96329.53;;;21.81;62.40
39141;BME280;24875;48.436;10.298;2023-05-06T11:21:48;96318.19;;;21.62;62.55
39141;BME280;24875;48.436;10.298;2023-05-06T11:24:21;96315.88;;;21.38;74.62
39141;BME280;24875;48.436;10.298;2023-05-06T11:26:49;96315.00;;;21.05;71.70
39141;BME280;24875;48.436;10.298;2023-05-06T11:29:17;96318.38;;;21.56;66.10
39141;BME280;24875;48.436;10.298;2023-05-06T11:31:44;96312.69;;;22.02;65.74
39141;BME280;24875;48.436;10.298;2023-05-06T11:34:13;96311.56;;;22.52;67.06
39141;BME280;24875;48.436;10.298;2023-05-06T11:36:45;96312.31;;;22.90;64.17
39141;BME280;24875;48.436;10.298;2023-05-06T11:39:12;96308.47;;;22.86;62.25
39141;BME280;24875;48.436;10.298;2023-05-06T11:41:40;96314.00;;;22.53;65.77
39141;BME280;24875;48.436;10.298;2023-05-06T11:44:06;96312.06;;;22.70;63.41
39141;BME280;24875;48.436;10.298;2023-05-06T11:46:35;96319.22;;;22.86;63.29
39141;BME280;24875;48.436;10.298;2023-05-06T11:49:01;96307.22;;;22.93;59.65
39141;BME280;24875;48.436;10.298;2023-05-06T11:51:27;96312.66;;;23.20;68.32
39141;BME280;24875;48.436;10.298;2023-05-06T11:54:04;96318.59;;;22.58;63.97
39141;BME280;24875;48.436;10.298;2023-05-06T11:56:44;96308.03;;;22.51;61.65
39141;BME280;24875;48.436;10.298;2023-05-06T11:59:11;96309.50;;;22.59;60.75
39141;BME280;24875;48.436;10.298;2023-05-06T12:01:41;96309.16;;;22.34;64.58
39141;BME280;24875;48.436;10.298;2023-05-06T12:04:08;96314.47;;;22.12;64.94
39141;BME280;24875;48.436;10.298;2023-05-06T12:06:36;96316.13;;;22.72;64.13
39141;BME280;24875;48.436;10.298;2023-05-06T12:09:05;96303.94;;;22.65;59.05
39141;BME280;24875;48.436;10.298;2023-05-06T12:11:33;96300.72;;;21.93;59.64
39141;BME280;24875;48.436;10.298;2023-05-06T12:14:01;96297.94;;;22.37;56.23
39141;BME280;24875;48.436;10.298;2023-05-06T12:16:28;96295.31;;;23.06;56.90
39141;BME280;24875;48.436;10.298;2023-05-06T12:18:56;96299.34;;;23.61;56.02
39141;BME280;24875;48.436;10.298;2023-05-06T12:21:23;96290.94;;;23.52;57.39
39141;BME280;24875;48.436;10.298;2023-05-06T12:23:51;96294.09;;;23.44;56.58
39141;BME280;24875;48.436;10.298;2023-05-06T12:26:18;96298.78;;;23.85;55.64
39141;BME280;24875;48.436;10.298;2023-05-06T12:28:45;96294.19;;;23.54;53.63
39141;BME280;24875;48.436;10.298;2023-05-06T12:31:18;96286.16;;;23.59;54.45
39141;BME280;24875;48.436;10.298;2023-05-06T12:33:46;96289.22;;;23.41;58.25
39141;BME280;24875;48.436;10.298;2023-05-06T12:36:16;96289.56;;;22.76;57.83
39141;BME280;24875;48.436;10.298;2023-05-06T12:38:50;96279.94;;;22.37;59.39
39141;BME280;24875;48.436;10.298;2023-05-06T12:41:17;96290.41;;;21.85;63.46
39141;BME280;24875;48.436;10.298;2023-05-06T12:43:44;96293.03;;;21.80;62.11
39141;BME280;24875;48.436;10.298;2023-05-06T12:46:11;96289.44;;;21.91;61.37